sensor_id;sensor_type;location;lat;lon;timestamp;pressure;altitude;pressure_sealevel;temperature;humidity
77079;BME280;66004;55.096;38.760;2023-05-29T00:02:04;100351.81;;;8.98;67.57
77079;BME280;66004;55.096;38.760;2023-05-29T00:04:30;100368.50;;;9.03;67.43
77079;BME280;66004;55.096;38.760;2023-05-29T00:06:55;100379.06;;;9.06;67.66
77079;BME280;66004;55.096;38.760;2023-05-29T00:09:21;100376.94;;;9.03;67.60
77079;BME280;66004;55.096;38.760;2023-05-29T00:11:46;100379.22;;;9.01;67.52
77079;BME280;66004;55.096;38.760;2023-05-29T00:14:16;100392.22;;;8.96;67.54
77079;BME280;66004;55.096;38.760;2023-05-29T00:16:44;100370.69;;;8.83;67.61
77079;BME280;66004;55.096;38.760;2023-05-29T00:19:09;100391.22;;;8.92;67.73
77079;BME280;66004;55.096;38.760;2023-05-29T00:21:35;100395.81;;;8.88;67.68
77079;BME280;66004;55.096;38.760;2023-05-29T00:24:00;100395.81;;;8.88;67.60
77079;BME280;66004;55.096;38.760;2023-05-29T00:26:26;100398.94;;;8.87;67.75
77079;BME280;66004;55.096;38.760;2023-05-29T00:28:51;100394.81;;;8.84;67.80
77079;BME280;66004;55.096;38.760;2023-05-29T00:31:16;100389.19;;;8.84;67.94
77079;BME280;66004;55.096;38.760;2023-05-29T00:33:42;100392.13;;;8.79;68.10
77079;BME280;66004;55.096;38.760;2023-05-29T00:36:08;100381.06;;;8.74;68.31
77079;BME280;66004;55.096;38.760;2023-05-29T00:38:33;100385.50;;;8.75;68.08
77079;BME280;66004;55.096;38.760;2023-05-29T00:40:59;100384.88;;;8.78;68.16
77079;BME280;66004;55.096;38.760;2023-05-29T00:43:24;100381.56;;;8.76;68.22
77079;BME280;66004;55.096;38.760;2023-05-29T00:45:50;100382.38;;;8.76;68.41
77079;BME280;66004;55.096;38.760;2023-05-29T00:48:15;100388.81;;;8.77;68.19
77079;BME280;66004;55.096;38.760;2023-05-29T00:50:43;100383.88;;;8.74;68.22
77079;BME280;66004;55.096;38.760;2023-05-29T00:53:09;100390.78;;;8.76;68.37
77079;BME280;66004;55.096;38.760;2023-05-29T00:55:35;100392.78;;;8.76;68.27
77079;BME280;66004;55.096;38.760;2023-05-29T00:58:01;100392.78;;;8.76;68.39
77079;BME280;66004;55.096;38.760;2023-05-29T01:00:27;100390.91;;;8.71;68.23
77079;BME280;66004;55.096;38.760;2023-05-29T01:02:53;100374.88;;;8.63;68.46
77079;BME280;66004;55.096;38.760;2023-05-29T01:05:21;100395.91;;;8.74;68.47
77079;BME280;66004;55.096;38.760;2023-05-29T01:07:47;100395.09;;;8.74;68.57
77079;BME280;66004;55.096;38.760;2023-05-29T01:10:14;100402.34;;;8.75;68.51
77079;BME280;66004;55.096;38.760;2023-05-29T01:15:17;100403.50;;;8.74;68.35
77079;BME280;66004;55.096;38.760;2023-05-29T01:20:27;100414.19;;;8.72;68.63
77079;BME280;66004;55.096;38.760;2023-05-29T01:23:23;100416.16;;;8.71;68.71
77079;BME280;66004;55.096;38.760;2023-05-29T01:28:48;100403.44;;;8.65;68.64
77079;BME280;66004;55.096;38.760;2023-05-29T01:31:22;100419.78;;;8.72;68.75
77079;BME280;66004;55.096;38.760;2023-05-29T01:33:56;100417.53;;;8.74;68.68
77079;BME280;66004;55.096;38.760;2023-05-29T01:36:23;100426.25;;;8.72;68.09
77079;BME280;66004;55.096;38.760;2023-05-29T01:38:51;100432.56;;;8.78;68.48
77079;BME280;66004;55.096;38.760;2023-05-29T01:41:17;100423.50;;;8.81;68.47
77079;BME280;66004;55.096;38.760;2023-05-29T01:43:47;100439.06;;;8.87;68.26
77079;BME280;66004;55.096;38.760;2023-05-29T01:46:13;100429.28;;;8.85;68.10
77079;BME280;66004;55.096;38.760;2023-05-29T01:48:43;100435.81;;;8.94;68.00
77079;BME280;66004;55.096;38.760;2023-05-29T01:51:09;100425.56;;;8.89;67.86
77079;BME280;66004;55.096;38.760;2023-05-29T01:53:39;100437.13;;;8.96;67.86
77079;BME280;66004;55.096;38.760;2023-05-29T01:56:05;100437.00;;;9.02;67.79
77079;BME280;66004;55.096;38.760;2023-05-29T01:58:31;100433.56;;;9.05;67.85
77079;BME280;66004;55.096;38.760;2023-05-29T02:00:58;100443.50;;;9.11;67.62
77079;BME280;66004;55.096;38.760;2023-05-29T02:03:23;100444.50;;;9.15;67.70
77079;BME280;66004;55.096;38.760;2023-05-29T02:05:50;100446.69;;;9.18;67.63
77079;BME280;66004;55.096;38.760;2023-05-29T02:08:16;100444.50;;;9.15;67.44
77079;BME280;66004;55.096;38.760;2023-05-29T02:10:41;100456.13;;;9.22;67.30
77079;BME280;66004;55.096;38.760;2023-05-29T02:13:06;100456.31;;;9.26;67.25
77079;BME280;66004;55.096;38.760;2023-05-29T02:15:32;100453.19;;;9.27;67.08
77079;BME280;66004;55.096;38.760;2023-05-29T02:17:57;100467.09;;;9.32;67.07
77079;BME280;66004;55.096;38.760;2023-05-29T02:20:24;100450.88;;;9.29;67.02
77079;BME280;66004;55.096;38.760;2023-05-29T02:22:49;100456.88;;;9.37;67.09
77079;BME280;66004;55.096;38.760;2023-05-29T02:25:15;100459.53;;;9.42;66.78
77079;BME280;66004;55.096;38.760;2023-05-29T02:27:41;100455.25;;;9.44;66.86
77079;BME280;66004;55.096;38.760;2023-05-29T02:30:07;100443.72;;;9.46;66.67
77079;BME280;66004;55.096;38.760;2023-05-29T02:32:33;100447.22;;;9.51;66.68
77079;BME280;66004;55.096;38.760;2023-05-29T02:34:59;100457.97;;;9.58;66.45
77079;BME280;66004;55.096;38.760;2023-05-29T02:37:24;100454.84;;;9.60;66.48
77079;BME280;66004;55.096;38.760;2023-05-29T02:39:51;100464.31;;;9.72;66.35
77079;BME280;66004;55.096;38.760;2023-05-29T02:42:17;100467.81;;;9.78;66.30
77079;BME280;66004;55.096;38.760;2023-05-29T02:44:42;100471.31;;;9.84;66.28
77079;BME280;66004;55.096;38.760;2023-05-29T02:47:07;100457.56;;;9.82;66.12
77079;BME280;66004;55.096;38.760;2023-05-29T02:52:00;100469.84;;;9.95;65.55
77079;BME280;66004;55.096;38.760;2023-05-29T02:54:26;100469.72;;;10.00;65.59
77079;BME280;66004;55.096;38.760;2023-05-29T02:56:52;100469.03;;;10.03;65.56
77079;BME280;66004;55.096;38.760;2023-05-29T02:59:17;100473.34;;;10.09;65.31
77079;BME280;66004;55.096;38.760;2023-05-29T03:01:43;100460.59;;;10.03;65.18
77079;BME280;66004;55.096;38.760;2023-05-29T03:04:09;100477.00;;;10.19;65.56
77079;BME280;66004;55.096;38.760;2023-05-29T03:06:35;100476.88;;;10.24;65.33
77079;BME280;66004;55.096;38.760;2023-05-29T03:09:02;100475.56;;;10.30;65.35
77079;BME280;66004;55.096;38.760;2023-05-29T03:11:28;100486.03;;;10.38;65.40
77079;BME280;66004;55.096;38.760;2023-05-29T03:13:54;100489.69;;;10.47;65.31
77079;BME280;66004;55.096;38.760;2023-05-29T03:16:20;100489.69;;;10.56;65.03
77079;BME280;66004;55.096;38.760;2023-05-29T03:18:46;100492.53;;;10.65;65.28
77079;BME280;66004;55.096;38.760;2023-05-29T03:21:12;100481.13;;;10.70;64.81
77079;BME280;66004;55.096;38.760;2023-05-29T03:23:37;100495.34;;;10.82;65.11
77079;BME280;66004;55.096;38.760;2023-05-29T03:26:03;100494.38;;;10.87;64.78
77079;BME280;66004;55.096;38.760;2023-05-29T03:28:29;100499.97;;;10.96;64.40
77079;BME280;66004;55.096;38.760;2023-05-29T03:30:55;100470.00;;;10.91;64.40
77079;BME280;66004;55.096;38.760;2023-05-29T03:33:20;100511.22;;;11.13;64.21
77079;BME280;66004;55.096;38.760;2023-05-29T03:35:46;100504.28;;;11.19;64.18
77079;BME280;66004;55.096;38.760;2023-05-29T03:38:11;100497.28;;;11.25;63.44
77079;BME280;66004;55.096;38.760;2023-05-29T03:40:36;100496.13;;;11.35;63.64
77079;BME280;66004;55.096;38.760;2023-05-29T03:43:02;100492.59;;;11.47;63.12
77079;BME280;66004;55.096;38.760;2023-05-29T03:45:27;100501.19;;;11.59;63.28
77079;BME280;66004;55.096;38.760;2023-05-29T03:47:53;100510.78;;;11.76;62.99
77079;BME280;66004;55.096;38.760;2023-05-29T03:50:18;100509.06;;;11.92;62.95
77079;BME280;66004;55.096;38.760;2023-05-29T03:52:44;100492.88;;;12.19;62.08
77079;BME280;66004;55.096;38.760;2023-05-29T03:55:10;100503.88;;;12.83;61.01
77079;BME280;66004;55.096;38.760;2023-05-29T03:57:40;100500.41;;;13.87;58.43
77079;BME280;66004;55.096;38.760;2023-05-29T04:00:10;100492.50;;;15.79;53.83
77079;BME280;66004;55.096;38.760;2023-05-29T04:02:40;100488.94;;;17.01;50.58
77079;BME280;66004;55.096;38.760;2023-05-29T04:05:06;100501.56;;;17.62;49.13
77079;BME280;66004;55.096;38.760;2023-05-29T04:07:33;100493.88;;;17.85;48.64
77079;BME280;66004;55.096;38.760;2023-05-29T04:09:58;100502.09;;;17.48;49.34
77079;BME280;66004;55.096;38.760;2023-05-29T04:12:24;100503.56;;;16.83;50.54
77079;BME280;66004;55.096;38.760;2023-05-29T04:14:51;100503.22;;;16.33;51.54
77079;BME280;66004;55.096;38.760;2023-05-29T04:17:16;100502.78;;;16.00;52.40
77079;BME280;66004;55.096;38.760;2023-05-29T04:19:42;100513.44;;;15.74;52.91
77079;BME280;66004;55.096;38.760;2023-05-29T04:22:07;100503.50;;;15.52;53.17
77079;BME280;66004;55.096;38.760;2023-05-29T04:24:33;100510.06;;;15.41;53.17
77079;BME280;66004;55.096;38.760;2023-05-29T04:27:02;100510.78;;;15.37;53.30
77079;BME280;66004;55.096;38.760;2023-05-29T04:29:30;100509.09;;;15.49;52.67
77079;BME280;66004;55.096;38.760;2023-05-29T04:31:57;100516.38;;;15.50;53.07
77079;BME280;66004;55.096;38.760;2023-05-29T04:34:23;100507.88;;;15.50;52.37
77079;BME280;66004;55.096;38.760;2023-05-29T04:36:49;100517.81;;;15.56;52.61
77079;BME280;66004;55.096;38.760;2023-05-29T04:39:15;100515.53;;;15.62;52.64
77079;BME280;66004;55.096;38.760;2023-05-29T04:41:41;100522.13;;;15.66;52.12
77079;BME280;66004;55.096;38.760;2023-05-29T04:44:07;100517.59;;;15.77;51.95
77079;BME280;66004;55.096;38.760;2023-05-29T04:46:33;100519.59;;;15.92;51.84
77079;BME280;66004;55.096;38.760;2023-05-29T04:49:00;100522.34;;;16.05;50.99
77079;BME280;66004;55.096;38.760;2023-05-29T04:51:28;100522.63;;;16.15;49.63
77079;BME280;66004;55.096;38.760;2023-05-29T04:53:55;100524.34;;;16.52;48.31
77079;BME280;66004;55.096;38.760;2023-05-29T04:56:20;100522.09;;;16.61;47.02
77079;BME280;66004;55.096;38.760;2023-05-29T04:58:47;100517.75;;;16.48;46.80
77079;BME280;66004;55.096;38.760;2023-05-29T05:01:12;100538.66;;;16.40;47.14
77079;BME280;66004;55.096;38.760;2023-05-29T05:03:43;100541.13;;;16.41;46.99
77079;BME280;66004;55.096;38.760;2023-05-29T05:06:11;100532.97;;;16.40;46.87
77079;BME280;66004;55.096;38.760;2023-05-29T05:08:38;100536.25;;;16.42;46.91
77079;BME280;66004;55.096;38.760;2023-05-29T05:11:04;100541.53;;;16.59;46.73
77079;BME280;66004;55.096;38.760;2023-05-29T05:13:29;100538.50;;;16.68;46.23
77079;BME280;66004;55.096;38.760;2023-05-29T05:15:55;100532.63;;;16.77;45.97
77079;BME280;66004;55.096;38.760;2023-05-29T05:18:21;100537.03;;;17.09;46.07
77079;BME280;66004;55.096;38.760;2023-05-29T05:20:46;100535.41;;;17.47;45.56
77079;BME280;66004;55.096;38.760;2023-05-29T05:23:12;100532.81;;;17.39;45.18
77079;BME280;66004;55.096;38.760;2023-05-29T05:25:37;100540.66;;;17.26;44.96
77079;BME280;66004;55.096;38.760;2023-05-29T05:28:04;100530.63;;;17.12;45.33
77079;BME280;66004;55.096;38.760;2023-05-29T05:30:30;100545.56;;;17.09;45.01
77079;BME280;66004;55.096;38.760;2023-05-29T05:32:55;100525.22;;;16.88;45.74
77079;BME280;66004;55.096;38.760;2023-05-29T05:35:21;100544.78;;;16.93;45.26
77079;BME280;66004;55.096;38.760;2023-05-29T05:37:47;100544.66;;;16.86;44.62
77079;BME280;66004;55.096;38.760;2023-05-29T05:40:13;100547.00;;;16.84;44.94
77079;BME280;66004;55.096;38.760;2023-05-29T05:42:38;100547.00;;;16.84;45.28
77079;BME280;66004;55.096;38.760;2023-05-29T05:45:05;100554.09;;;16.90;45.26
77079;BME280;66004;55.096;38.760;2023-05-29T05:47:34;100562.00;;;17.00;45.40
77079;BME280;66004;55.096;38.760;2023-05-29T05:50:00;100560.50;;;17.06;45.47
77079;BME280;66004;55.096;38.760;2023-05-29T05:52:25;100559.94;;;17.17;45.76
77079;BME280;66004;55.096;38.760;2023-05-29T05:54:55;100565.78;;;17.24;45.46
77079;BME280;66004;55.096;38.760;2023-05-29T05:57:21;100562.06;;;17.20;45.06
77079;BME280;66004;55.096;38.760;2023-05-29T05:59:46;100565.63;;;17.17;45.18
77079;BME280;66004;55.096;38.760;2023-05-29T06:02:12;100572.22;;;17.21;44.70
77079;BME280;66004;55.096;38.760;2023-05-29T06:04:37;100560.28;;;17.31;45.05
77079;BME280;66004;55.096;38.760;2023-05-29T06:07:03;100571.13;;;17.45;45.14
77079;BME280;66004;55.096;38.760;2023-05-29T06:09:29;100557.41;;;17.50;45.02
77079;BME280;66004;55.096;38.760;2023-05-29T06:11:54;100584.66;;;17.71;44.31
77079;BME280;66004;55.096;38.760;2023-05-29T06:14:20;100578.06;;;17.86;42.07
77079;BME280;66004;55.096;38.760;2023-05-29T06:16:45;100577.47;;;18.20;41.04
77079;BME280;66004;55.096;38.760;2023-05-29T06:19:12;100583.28;;;18.27;40.39
77079;BME280;66004;55.096;38.760;2023-05-29T06:21:37;100581.28;;;18.27;41.19
77079;BME280;66004;55.096;38.760;2023-05-29T06:24:03;100574.50;;;18.36;41.14
77079;BME280;66004;55.096;38.760;2023-05-29T06:26:28;100584.03;;;18.47;40.86
77079;BME280;66004;55.096;38.760;2023-05-29T06:28:54;100596.66;;;18.46;40.64
77079;BME280;66004;55.096;38.760;2023-05-29T06:31:20;100591.66;;;18.39;39.74
77079;BME280;66004;55.096;38.760;2023-05-29T06:33:45;100584.34;;;18.65;39.25
77079;BME280;66004;55.096;38.760;2023-05-29T06:36:11;100587.03;;;19.08;38.10
77079;BME280;66004;55.096;38.760;2023-05-29T06:38:37;100583.28;;;19.30;36.83
77079;BME280;66004;55.096;38.760;2023-05-29T06:41:03;100589.44;;;19.66;35.96
77079;BME280;66004;55.096;38.760;2023-05-29T06:43:29;100585.41;;;20.01;35.96
77079;BME280;66004;55.096;38.760;2023-05-29T06:45:54;100591.97;;;20.46;35.44
77079;BME280;66004;55.096;38.760;2023-05-29T06:48:20;100598.72;;;20.72;35.38
77079;BME280;66004;55.096;38.760;2023-05-29T06:50:47;100600.53;;;20.94;34.53
77079;BME280;66004;55.096;38.760;2023-05-29T06:53:12;100598.13;;;20.96;34.01
77079;BME280;66004;55.096;38.760;2023-05-29T06:55:38;100600.72;;;21.19;33.36
77079;BME280;66004;55.096;38.760;2023-05-29T06:58:06;100595.84;;;21.27;33.32
77079;BME280;66004;55.096;38.760;2023-05-29T07:00:31;100590.31;;;20.93;32.99
77079;BME280;66004;55.096;38.760;2023-05-29T07:02:57;100598.78;;;20.79;32.95
77079;BME280;66004;55.096;38.760;2023-05-29T07:05:22;100604.56;;;20.86;33.85
77079;BME280;66004;55.096;38.760;2023-05-29T07:07:48;100596.56;;;21.10;33.33
77079;BME280;66004;55.096;38.760;2023-05-29T07:10:13;100601.56;;;21.27;32.87
77079;BME280;66004;55.096;38.760;2023-05-29T07:12:39;100616.19;;;21.15;31.69
77079;BME280;66004;55.096;38.760;2023-05-29T07:15:05;100612.31;;;20.82;31.01
77079;BME280;66004;55.096;38.760;2023-05-29T07:17:30;100601.16;;;20.70;31.21
77079;BME280;66004;55.096;38.760;2023-05-29T07:19:56;100607.09;;;20.50;31.46
77079;BME280;66004;55.096;38.760;2023-05-29T07:22:21;100601.56;;;20.23;31.24
77079;BME280;66004;55.096;38.760;2023-05-29T07:24:47;100597.94;;;19.93;31.07
77079;BME280;66004;55.096;38.760;2023-05-29T07:27:12;100598.66;;;19.82;31.35
77079;BME280;66004;55.096;38.760;2023-05-29T07:29:38;100596.88;;;19.71;32.53
77079;BME280;66004;55.096;38.760;2023-05-29T07:32:03;100596.16;;;19.77;33.18
77079;BME280;66004;55.096;38.760;2023-05-29T07:34:29;100587.41;;;19.97;33.65
77079;BME280;66004;55.096;38.760;2023-05-29T07:37:04;100598.69;;;20.23;33.36
77079;BME280;66004;55.096;38.760;2023-05-29T07:39:31;100604.06;;;20.29;32.13
77079;BME280;66004;55.096;38.760;2023-05-29T07:41:56;100597.56;;;20.35;31.95
77079;BME280;66004;55.096;38.760;2023-05-29T07:44:22;100600.16;;;20.48;31.89
77079;BME280;66004;55.096;38.760;2023-05-29T07:46:48;100600.69;;;20.19;32.56
77079;BME280;66004;55.096;38.760;2023-05-29T07:49:14;100600.63;;;20.12;32.76
77079;BME280;66004;55.096;38.760;2023-05-29T07:51:40;100603.25;;;20.32;32.72
77079;BME280;66004;55.096;38.760;2023-05-29T07:54:06;100592.75;;;20.43;32.79
77079;BME280;66004;55.096;38.760;2023-05-29T07:56:31;100599.41;;;20.58;32.36
77079;BME280;66004;55.096;38.760;2023-05-29T07:58:59;100609.28;;;20.64;30.62
77079;BME280;66004;55.096;38.760;2023-05-29T08:01:25;100596.09;;;20.52;30.58
77079;BME280;66004;55.096;38.760;2023-05-29T08:03:51;100604.31;;;20.57;31.12
77079;BME280;66004;55.096;38.760;2023-05-29T08:06:18;100598.56;;;20.54;29.73
77079;BME280;66004;55.096;38.760;2023-05-29T08:08:44;100601.66;;;20.34;30.49
77079;BME280;66004;55.096;38.760;2023-05-29T08:11:10;100607.38;;;20.38;31.21
77079;BME280;66004;55.096;38.760;2023-05-29T08:13:36;100603.13;;;20.21;30.58
77079;BME280;66004;55.096;38.760;2023-05-29T08:16:02;100603.75;;;20.00;30.91
77079;BME280;66004;55.096;38.760;2023-05-29T08:18:30;100593.97;;;20.01;30.66
77079;BME280;66004;55.096;38.760;2023-05-29T08:20:56;100598.97;;;20.11;30.80
77079;BME280;66004;55.096;38.760;2023-05-29T08:23:21;100599.69;;;20.01;31.25
77079;BME280;66004;55.096;38.760;2023-05-29T08:25:47;100598.31;;;19.88;31.21
77079;BME280;66004;55.096;38.760;2023-05-29T08:28:14;100603.75;;;20.00;31.05
77079;BME280;66004;55.096;38.760;2023-05-29T08:30:40;100602.69;;;20.15;31.39
77079;BME280;66004;55.096;38.760;2023-05-29T08:33:05;100591.03;;;20.35;31.19
77079;BME280;66004;55.096;38.760;2023-05-29T08:35:31;100596.03;;;20.45;31.13
77079;BME280;66004;55.096;38.760;2023-05-29T08:37:56;100591.19;;;20.53;30.91
77079;BME280;66004;55.096;38.760;2023-05-29T08:40:22;100593.66;;;20.54;30.72
77079;BME280;66004;55.096;38.760;2023-05-29T08:42:53;100587.09;;;20.50;30.60
77079;BME280;66004;55.096;38.760;2023-05-29T08:45:22;100586.25;;;20.46;30.81
77079;BME280;66004;55.096;38.760;2023-05-29T08:47:52;100570.63;;;20.33;30.21
77079;BME280;66004;55.096;38.760;2023-05-29T09:51:36;100569.59;;;20.11;30.20
77079;BME280;66004;55.096;38.760;2023-05-29T09:54:15;100562.25;;;20.13;30.51
77079;BME280;66004;55.096;38.760;2023-05-29T09:56:42;100559.97;;;20.30;30.78
77079;BME280;66004;55.096;38.760;2023-05-29T09:59:14;100552.28;;;20.37;30.62
77079;BME280;66004;55.096;38.760;2023-05-29T10:01:40;100548.69;;;20.44;30.72
77079;BME280;66004;55.096;38.760;2023-05-29T10:04:07;100556.84;;;20.46;30.90
77079;BME280;66004;55.096;38.760;2023-05-29T10:06:33;100542.56;;;20.49;30.88
77079;BME280;66004;55.096;38.760;2023-05-29T10:09:01;100548.88;;;20.66;31.00
77079;BME280;66004;55.096;38.760;2023-05-29T10:11:28;100553.44;;;20.74;31.17
77079;BME280;66004;55.096;38.760;2023-05-29T10:13:57;100552.63;;;20.77;31.65
77079;BME280;66004;55.096;38.760;2023-05-29T10:16:24;100548.03;;;20.61;30.42
77079;BME280;66004;55.096;38.760;2023-05-29T10:18:53;100550.00;;;20.57;30.98
77079;BME280;66004;55.096;38.760;2023-05-29T10:21:25;100540.66;;;20.60;30.87
77079;BME280;66004;55.096;38.760;2023-05-29T10:23:52;100533.28;;;20.59;31.59
77079;BME280;66004;55.096;38.760;2023-05-29T10:26:22;100543.19;;;20.73;30.99
77079;BME280;66004;55.096;38.760;2023-05-29T10:35:10;100531.19;;;20.56;30.47
77079;BME280;66004;55.096;38.760;2023-05-29T10:37:46;100536.41;;;20.40;31.05
77079;BME280;66004;55.096;38.760;2023-05-29T10:40:14;100536.44;;;20.47;30.75
77079;BME280;66004;55.096;38.760;2023-05-29T10:42:41;100527.56;;;20.59;30.56
77079;BME280;66004;55.096;38.760;2023-05-29T10:45:10;100526.03;;;20.73;30.51
77079;BME280;66004;55.096;38.760;2023-05-29T10:47:39;100523.59;;;20.75;30.25
77079;BME280;66004;55.096;38.760;2023-05-29T10:50:05;100525.25;;;20.76;30.16
77079;BME280;66004;55.096;38.760;2023-05-29T10:52:34;100522.84;;;20.82;29.49
77079;BME280;66004;55.096;38.760;2023-05-29T10:55:01;100526.94;;;20.84;30.35
77079;BME280;66004;55.096;38.760;2023-05-29T10:57:29;100530.25;;;20.93;29.75
77079;BME280;66004;55.096;38.760;2023-05-29T11:00:05;100530.31;;;21.00;29.91
77079;BME280;66004;55.096;38.760;2023-05-29T11:02:38;100518.03;;;20.96;29.66
77079;BME280;66004;55.096;38.760;2023-05-29T11:05:05;100529.53;;;21.11;30.09
77079;BME280;66004;55.096;38.760;2023-05-29T11:07:35;100526.31;;;21.16;30.23
77079;BME280;66004;55.096;38.760;2023-05-29T11:10:13;100523.38;;;21.05;28.67
77079;BME280;66004;55.096;38.760;2023-05-29T11:12:56;100518.44;;;20.98;29.43
77079;BME280;66004;55.096;38.760;2023-05-29T11:15:23;100521.34;;;21.02;29.13
77079;BME280;66004;55.096;38.760;2023-05-29T11:17:49;100515.59;;;21.06;29.12
77079;BME280;66004;55.096;38.760;2023-05-29T11:20:26;100523.00;;;21.10;29.51
77079;BME280;66004;55.096;38.760;2023-05-29T11:25:25;100509.16;;;21.19;29.56
77079;BME280;66004;55.096;38.760;2023-05-29T11:27:51;100514.84;;;21.12;29.99
77079;BME280;66004;55.096;38.760;2023-05-29T11:30:20;100514.03;;;21.15;30.17
77079;BME280;66004;55.096;38.760;2023-05-29T11:32:47;100514.88;;;21.23;30.23
77079;BME280;66004;55.096;38.760;2023-05-29T11:35:13;100508.34;;;21.26;30.19
77079;BME280;66004;55.096;38.760;2023-05-29T11:37:43;100507.53;;;21.22;30.29
77079;BME280;66004;55.096;38.760;2023-05-29T11:40:11;100501.78;;;21.22;29.18
77079;BME280;66004;55.096;38.760;2023-05-29T11:42:45;100497.72;;;21.19;29.62
77079;BME280;66004;55.096;38.760;2023-05-29T11:45:19;100505.81;;;21.07;29.66
77079;BME280;66004;55.096;38.760;2023-05-29T11:50:28;100496.44;;;21.10;29.89
77079;BME280;66004;55.096;38.760;2023-05-29T11:52:56;100481.69;;;21.08;29.68
77079;BME280;66004;55.096;38.760;2023-05-29T11:55:22;100487.00;;;21.06;29.50
77079;BME280;66004;55.096;38.760;2023-05-29T11:57:50;100473.09;;;21.08;29.54
77079;BME280;66004;55.096;38.760;2023-05-29T12:00:17;100481.69;;;21.08;29.58
77079;BME280;66004;55.096;38.760;2023-05-29T12:02:44;100476.41;;;21.06;30.64
77079;BME280;66004;55.096;38.760;2023-05-29T12:05:13;100483.41;;;21.19;30.54
77079;BME280;66004;55.096;38.760;2023-05-29T12:07:52;100473.63;;;21.31;29.92
77079;BME280;66004;55.096;38.760;2023-05-29T12:10:20;100463.03;;;21.39;30.46
77079;BME280;66004;55.096;38.760;2023-05-29T12:12:53;100468.41;;;21.62;29.92
77079;BME280;66004;55.096;38.760;2023-05-29T12:15:19;100447.16;;;21.63;29.77
77079;BME280;66004;55.096;38.760;2023-05-29T12:17:47;100476.63;;;21.71;30.11
77079;BME280;66004;55.096;38.760;2023-05-29T12:20:14;100466.00;;;21.78;29.78
77079;BME280;66004;55.096;38.760;2023-05-29T12:22:42;100468.03;;;21.67;29.97
77079;BME280;66004;55.096;38.760;2023-05-29T12:25:19;100473.72;;;21.56;29.89
77079;BME280;66004;55.096;38.760;2023-05-29T12:27:46;100461.38;;;21.34;29.84
77079;BME280;66004;55.096;38.760;2023-05-29T12:30:14;100463.38;;;21.23;30.30
77079;BME280;66004;55.096;38.760;2023-05-29T12:32:42;100457.59;;;21.09;30.27
77079;BME280;66004;55.096;38.760;2023-05-29T12:37:48;100449.41;;;21.04;30.23
77079;BME280;66004;55.096;38.760;2023-05-29T12:42:45;100433.19;;;21.40;30.03
77079;BME280;66004;55.096;38.760;2023-05-29T12:45:11;100438.97;;;21.58;30.00
77079;BME280;66004;55.096;38.760;2023-05-29T12:47:37;100448.81;;;21.78;30.15
77079;BME280;66004;55.096;38.760;2023-05-29T12:50:22;100441.06;;;21.90;29.44
77079;BME280;66004;55.096;38.760;2023-05-29T12:53:01;100449.66;;;21.90;29.57
77079;BME280;66004;55.096;38.760;2023-05-29T12:55:28;100437.34;;;21.71;29.37
77079;BME280;66004;55.096;38.760;2023-05-29T12:57:54;100442.25;;;21.64;29.98
77079;BME280;66004;55.096;38.760;2023-05-29T13:00:21;100434.06;;;21.55;29.81
77079;BME280;66004;55.096;38.760;2023-05-29T13:02:47;100439.78;;;21.55;29.89
77079;BME280;66004;55.096;38.760;2023-05-29T13:05:14;100427.94;;;21.49;30.12
77079;BME280;66004;55.096;38.760;2023-05-29T13:07:42;100444.72;;;21.65;30.03
77079;BME280;66004;55.096;38.760;2023-05-29T13:10:07;100441.88;;;21.72;29.91
77079;BME280;66004;55.096;38.760;2023-05-29T13:12:34;100434.06;;;21.69;29.55
77079;BME280;66004;55.096;38.760;2023-05-29T13:15:00;100435.75;;;21.77;29.39
77079;BME280;66004;55.096;38.760;2023-05-29T13:17:26;100439.81;;;21.69;29.45
77079;BME280;66004;55.096;38.760;2023-05-29T13:19:51;100437.34;;;21.75;29.45
77079;BME280;66004;55.096;38.760;2023-05-29T13:22:17;100429.16;;;21.73;29.08
77079;BME280;66004;55.096;38.760;2023-05-29T13:24:42;100431.66;;;21.86;29.28
77079;BME280;66004;55.096;38.760;2023-05-29T13:27:08;100436.97;;;21.91;29.10
77079;BME280;66004;55.096;38.760;2023-05-29T13:29:34;100426.72;;;21.90;29.22
77079;BME280;66004;55.096;38.760;2023-05-29T13:32:00;100431.22;;;21.98;29.19
77079;BME280;66004;55.096;38.760;2023-05-29T13:34:26;100439.00;;;22.08;29.11
77079;BME280;66004;55.096;38.760;2023-05-29T13:36:57;100417.72;;;21.95;29.11
77079;BME280;66004;55.096;38.760;2023-05-29T13:39:23;100437.38;;;22.11;28.94
77079;BME280;66004;55.096;38.760;2023-05-29T13:41:50;100443.09;;;22.14;28.84
77079;BME280;66004;55.096;38.760;2023-05-29T13:44:15;100442.28;;;22.17;28.84
77079;BME280;66004;55.096;38.760;2023-05-29T13:46:41;100439.00;;;22.08;28.81
77079;BME280;66004;55.096;38.760;2023-05-29T13:49:07;100444.75;;;22.12;28.71
77079;BME280;66004;55.096;38.760;2023-05-29T13:51:33;100421.00;;;22.01;28.67
77079;BME280;66004;55.096;38.760;2023-05-29T13:53:58;100441.47;;;22.10;28.80
77079;BME280;66004;55.096;38.760;2023-05-29T13:56:24;100430.00;;;21.92;29.09
77079;BME280;66004;55.096;38.760;2023-05-29T13:58:52;100438.19;;;21.83;28.95
77079;BME280;66004;55.096;38.760;2023-05-29T14:01:18;100447.19;;;21.77;29.53
77079;BME280;66004;55.096;38.760;2023-05-29T14:03:45;100443.91;;;21.83;29.39
77079;BME280;66004;55.096;38.760;2023-05-29T14:06:11;100437.38;;;21.96;28.93
77079;BME280;66004;55.096;38.760;2023-05-29T14:08:37;100438.63;;;22.10;28.72
77079;BME280;66004;55.096;38.760;2023-05-29T14:11:02;100439.84;;;22.27;29.12